Data for 05/18/2010

Time Sea-Level Adjusted Pressure Absolute Pressure Temperature Relative Humidity Dew Point   
(mb) (inHg) (mb) (inHg) (C) (F) (%) (C) (F)
00:05 1012 29.88 841 24.83 16.1 60.9 37 1.5 34.7
00:10 1012 29.88 841 24.83 16 60.8 36 0.9 33.6
00:15 1012 29.88 841 24.83 16.1 61.1 35 0.9 33.6
00:20 1012 29.88 841 24.83 16.4 61.4 34 0.5 32.8
00:25 1012 29.88 841 24.83 16.8 62.3 33 0.5 32.8
00:30 1012 29.88 841 24.83 16.8 62.3 34 1.1 33.9
00:35 1011 29.85 841 24.83 16.5 61.7 35 1.1 34
00:40 1012 29.88 841 24.83 16.4 61.5 36 1.2 34.2
00:45 1012 29.88 841 24.83 16.1 61 36 1.2 34.1
00:50 1012 29.88 841 24.83 16 60.7 38 1.6 34.8
00:55 1012 29.88 841 24.83 16 60.8 36 1 33.9
01:00 1011 29.85 841 24.83 16.2 61.2 34 0.6 33.1
01:05 1012 29.88 841 24.83 16.5 61.7 35 1 33.8
01:10 1012 29.88 841 24.83 16.5 61.6 35 1.2 34.2
01:15 1012 29.88 841 24.83 16.4 61.5 36 1.2 34.2
01:20 1012 29.88 841 24.83 16.3 61.4 37 1.6 34.8
01:25 1012 29.88 841 24.83 16.1 61 37 1.7 35.1
01:30 1011 29.85 841 24.83 16.1 61 36 1.3 34.4
01:35 1011 29.85 841 24.83 16 60.7 36 1 33.9
01:40 1011 29.85 841 24.83 16.2 61.1 37 1.4 34.6
01:45 1011 29.85 840 24.81 16.1 61 37 1.6 34.8
01:50 1011 29.85 840 24.81 16 60.8 37 1.2 34.2
01:55 1011 29.85 840 24.81 16.1 60.9 37 1.3 34.4
02:00 1011 29.85 840 24.81 16.1 61 36 1.2 34.1
02:05 1011 29.85 840 24.81 16.2 61.2 36 1.1 34
02:10 1011 29.85 840 24.81 16.2 61.1 35 0.9 33.7
02:15 1011 29.85 840 24.81 16.3 61.4 34 0.6 33.1
02:20 1011 29.85 840 24.81 16.4 61.5 35 0.9 33.6
02:25 1011 29.85 840 24.81 16.3 61.3 35 0.9 33.5
02:30 1011 29.85 840 24.81 16.1 61.1 35 0.9 33.5
02:35 1011 29.85 840 24.81 16.1 61 35 0.8 33.4
02:40 1011 29.85 840 24.81 16.1 61 35 0.8 33.4
02:45 1011 29.85 840 24.81 16.2 61.1 34 0.5 32.9
02:50 1010 29.83 840 24.81 16.2 61.2 34 0.3 32.6
02:55 1011 29.85 840 24.81 16.3 61.3 35 1 33.9
03:00 1011 29.85 840 24.81 16.2 61.1 40 2.6 36.7
03:05 1011 29.85 840 24.81 15.7 60.3 41 2.7 36.9
03:10 1011 29.85 840 24.81 15.5 59.9 39 1.7 35.1
03:15 1011 29.85 840 24.81 15.4 59.7 39 1.6 34.8
03:20 1011 29.85 840 24.81 15.4 59.7 39 1.5 34.7
03:25 1011 29.85 840 24.81 15.5 60 35 0.2 32.3
03:30 1011 29.85 840 24.81 15.4 59.7 35 0.2 32.4
03:35 1011 29.85 840 24.81 15.1 59.1 36 0.2 32.3
03:40 1011 29.85 840 24.81 15 59.1 37 0.7 33.3
03:45 1011 29.85 840 24.81 14.9 58.7 37 0.3 32.6
03:50 1011 29.85 840 24.81 14.7 58.4 40 1.3 34.3
03:55 1011 29.85 840 24.81 14.6 58.3 39 0.9 33.5
04:00 1011 29.85 840 24.81 14.5 58.1 36 -0.3 31.4
04:05 1011 29.85 840 24.81 14.8 58.7 37 0.3 32.5
04:10 1011 29.85 840 24.81 14.3 57.7 36 -0.4 31.3
04:15 1011 29.85 840 24.81 14.6 58.3 36 -0.3 31.4
04:20 1011 29.85 840 24.81 14.5 58.1 38 0.5 32.9
04:25 1011 29.85 840 24.81 14.1 57.4 39 0.3 32.6
04:30 1011 29.85 840 24.81 14 57.3 38 0 32.1
04:35 1011 29.85 840 24.81 14.3 57.7 39 0.6 33.1
04:40 1011 29.85 841 24.83 14.1 57.4 38 0.1 32.1
04:45 1011 29.85 840 24.81 14.1 57.3 37 -0.2 31.7
04:50 1011 29.85 840 24.81 14.3 57.7 36 -0.5 31.2
04:55 1011 29.85 840 24.81 14.3 57.7 40 1 33.8
05:00 1011 29.85 840 24.81 13.3 56 44 1.4 34.5
05:05 1011 29.85 840 24.81 12.8 55.1 46 1.6 34.9
05:10 1011 29.85 840 24.81 12.7 54.9 45 1.1 34
05:15 1011 29.85 840 24.81 12.9 55.2 43 0.8 33.4
05:20 1011 29.85 840 24.81 13 55.4 44 1.2 34.1
05:25 1011 29.85 840 24.81 12.9 55.1 45 1.1 34
05:30 1011 29.85 840 24.81 12.7 54.9 44 1 33.8
05:35 1011 29.85 840 24.81 12.7 54.8 44 0.7 33.2
05:40 1011 29.85 840 24.81 12.8 55 43 0.6 33.2
05:45 1011 29.85 840 24.81 12.8 55.1 44 0.9 33.7
05:50 1011 29.85 840 24.81 12.6 54.8 44 0.8 33.5
05:55 1011 29.85 840 24.81 12.6 54.7 45 1 33.7
06:00 1011 29.85 840 24.81 12.3 54.2 46 1 33.8
06:05 1011 29.85 840 24.81 12.2 54 46 0.9 33.6
06:10 1011 29.85 840 24.81 12.1 53.8 47 1.3 34.3
06:15 1011 29.85 840 24.81 12 53.5 45 0.5 32.9
06:20 1011 29.85 840 24.81 12.4 54.3 45 0.8 33.5
06:25 1011 29.85 840 24.81 12.4 54.3 45 0.9 33.6
06:30 1011 29.85 840 24.81 12.3 54.2 46 1.2 34.2
06:35 1011 29.85 840 24.81 12.2 53.9 47 1.1 34.1
06:40 1011 29.85 840 24.81 12.1 53.9 47 1.2 34.2
06:45 1011 29.85 840 24.81 11.9 53.4 48 1.2 34.1
06:50 1011 29.85 840 24.81 12 53.6 47 1 33.8
06:55 1011 29.85 840 24.81 12.3 54.1 46 1.2 34.1
07:00 1011 29.85 840 24.81 12.6 54.6 45 1 33.8
07:05 1011 29.85 840 24.81 12.7 54.9 46 1.3 34.4
07:10 1011 29.85 840 24.81 12.6 54.8 47 1.6 34.9
07:15 1011 29.85 840 24.81 12.7 54.8 47 1.8 35.2
07:20 1011 29.85 840 24.81 12.7 54.9 47 1.7 35.1
07:25 1011 29.85 840 24.81 12.7 54.8 49 2.1 35.9
07:30 1011 29.85 840 24.81 12.5 54.5 48 2 35.5
07:35 1011 29.85 840 24.81 12.5 54.6 50 2.4 36.4
07:40 1011 29.85 840 24.81 12.6 54.7 49 2.3 36.1
07:45 1011 29.85 840 24.81 12.9 55.2 49 2.4 36.3
07:50 1011 29.85 840 24.81 13.2 55.7 47 2.2 35.9
07:55 1011 29.85 840 24.81 13.2 55.8 47 2.3 36.1
08:00 1011 29.85 840 24.81 13.3 55.9 47 2.3 36.1
08:05 1011 29.85 840 24.81 13.4 56.2 45 1.9 35.4
08:10 1011 29.85 840 24.81 13.6 56.5 44 1.8 35.2
08:15 1011 29.85 840 24.81 13.9 57 44 2 35.6
08:20 1011 29.85 840 24.81 14.1 57.5 43 1.9 35.4
08:25 1011 29.85 840 24.81 14.3 57.7 45 2.5 36.5
08:30 1011 29.85 840 24.81 14.5 58 45 2.7 36.9
08:35 1011 29.85 840 24.81 14.2 57.6 44 2.3 36.1
08:40 1011 29.85 840 24.81 14.3 57.8 45 2.6 36.7
08:45 1011 29.85 840 24.81 14.7 58.4 44 2.7 36.8
08:50 1011 29.85 840 24.81 15 59 43 2.7 36.8
08:55 1011 29.85 840 24.81 15.2 59.4 41 2.1 35.8
09:00 1011 29.85 840 24.81 15.4 59.7 40 2.1 35.8
09:05 1011 29.85 840 24.81 15.8 60.4 39 2 35.7
09:10 1011 29.85 840 24.81 16.2 61.1 37 1.6 34.9
09:15 1011 29.85 840 24.81 16.2 61.2 38 2.1 35.7
09:20 1010 29.83 840 24.81 16.8 62.2 36 1.7 35
09:25 1010 29.83 840 24.81 17.4 63.4 34 1.5 34.7
09:30 1010 29.83 840 24.81 17.9 64.1 34 1.8 35.2
09:35 1010 29.83 840 24.81 18 64.4 34 2 35.5
09:40 1010 29.83 840 24.81 17.8 64 35 2.4 36.4
09:45 1010 29.83 840 24.81 17.5 63.5 36 2.5 36.5
09:50 1010 29.83 840 24.81 18 64.3 38 3.4 38.1
09:55 1010 29.83 840 24.81 18.4 65 39 4.3 39.8
10:00 1010 29.83 840 24.81 18.4 65.1 37 3.5 38.3
10:05 1010 29.83 840 24.81 18.9 66 34 3 37.3
10:10 1010 29.83 840 24.81 19.6 67.3 33 3 37.4
10:15 1010 29.83 840 24.81 19.3 66.8 31 1.7 35.1
10:20 1010 29.83 839 24.78 19.8 67.7 30 1.9 35.4
10:25 1010 29.83 839 24.78 19.8 67.7 31 2.2 35.9
10:30 1010 29.83 839 24.78 20.4 68.6 29 2.1 35.8
10:35 1010 29.83 839 24.78 20.6 69.2 28 1.7 35
10:40 1010 29.83 839 24.78 21.4 70.6 27 2 35.6
10:45 1010 29.83 839 24.78 21.4 70.6 27 1.8 35.2
10:50 1010 29.83 839 24.78 21.5 70.8 27 1.8 35.3
10:55 1010 29.83 839 24.78 22.1 71.8 26 1.7 35.1
11:00 1010 29.83 839 24.78 21.6 70.9 28 2.6 36.7
11:05 1010 29.83 839 24.78 20.5 68.9 29 1.8 35.3
11:10 1010 29.83 839 24.78 21.1 70 27 1.8 35.3
11:15 1010 29.83 839 24.78 21.1 69.9 30 2.8 37.1
11:20 1010 29.83 839 24.78 21.2 70.2 29 2.4 36.4
11:25 1010 29.83 839 24.78 21.8 71.3 26 1.8 35.2
11:30 1010 29.83 839 24.78 21.6 70.8 27 2.1 35.7
11:35 1010 29.83 839 24.78 22.4 72.4 26 2.4 36.3
11:40 1010 29.83 839 24.78 21.9 71.5 27 2.5 36.6
11:45 1010 29.83 839 24.78 21.2 70.1 29 2.9 37.2
11:50 1010 29.83 839 24.78 20.6 69.1 28 1.8 35.3
11:55 1010 29.83 839 24.78 21.2 70.1 28 2.1 35.7
12:00 1010 29.83 839 24.78 21.7 71.1 26 1.4 34.5
12:05 1010 29.83 839 24.78 22.1 71.8 25 1.6 34.9
12:10 1010 29.83 839 24.78 22.2 72 26 1.9 35.5
12:15 1010 29.83 839 24.78 21.2 70.1 29 2.4 36.3
12:20 1010 29.83 839 24.78 20.7 69.3 27 1.2 34.2
12:25 1010 29.83 839 24.78 21.6 70.9 26 1.5 34.7
12:30 1010 29.83 839 24.78 21.9 71.3 26 1.7 35
12:35 1010 29.83 839 24.78 22 71.7 26 1.7 35.1
12:40 1010 29.83 839 24.78 22 71.7 27 2.2 36
12:45 1010 29.83 839 24.78 21.6 70.8 25 0.9 33.6
12:50 1010 29.83 839 24.78 22.4 72.4 24 1 33.7
12:55 1009 29.8 839 24.78 21.3 70.3 27 1.5 34.7
13:00 1009 29.8 839 24.78 21.6 70.9 26 1.7 35
13:05 1009 29.8 839 24.78 21.3 70.3 28 2.1 35.8
13:10 1009 29.8 839 24.78 21.3 70.4 28 2.1 35.8
13:15 1009 29.8 838 24.75 21.4 70.5 28 2.3 36.2
13:20 1009 29.8 838 24.75 21.6 70.8 26 1.7 35
13:25 1009 29.8 838 24.75 21.8 71.2 26 1.7 35.1
13:30 1009 29.8 838 24.75 21.6 71 26 1.2 34.2
13:35 1009 29.8 838 24.75 22.5 72.4 23 0.5 32.9
13:40 1009 29.8 838 24.75 22.5 72.5 26 2.3 36.2
13:45 1009 29.8 838 24.75 22.1 71.8 25 1.4 34.6
13:50 1009 29.8 838 24.75 22 71.6 24 0.8 33.5
13:55 1009 29.8 838 24.75 21.9 71.5 23 0.3 32.5
14:00 1009 29.8 838 24.75 22.3 72.1 24 1 33.8
14:05 1009 29.8 838 24.75 22.6 72.7 24 1.4 34.5
14:10 1009 29.8 838 24.75 22.6 72.7 24 1.3 34.4
14:15 1009 29.8 838 24.75 21.5 70.7 26 1.3 34.4
14:20 1009 29.8 838 24.75 22 71.7 24 1 33.7
14:25 1009 29.8 838 24.75 22.5 72.4 25 1.7 35.1
14:30 1009 29.8 838 24.75 21.4 70.6 31 3.8 38.8
14:35 1009 29.8 838 24.75 19.5 67.1 35 3.7 38.7
14:40 1009 29.8 838 24.75 18.9 66.1 37 4.1 39.3
14:45 1009 29.8 838 24.75 19.3 66.7 38 4.6 40.3
14:50 1009 29.8 838 24.75 19.5 67.1 39 5.2 41.4
14:55 1009 29.8 838 24.75 19.6 67.2 37 4.6 40.4
15:00 1009 29.8 838 24.75 19.9 67.7 38 5.2 41.3
15:05 1009 29.8 838 24.75 20.6 69 37 5.3 41.6
15:10 1009 29.8 838 24.75 21.1 70 32 3.7 38.7
15:15 1009 29.8 838 24.75 21.5 70.6 31 3.7 38.6
15:20 1009 29.8 838 24.75 21.6 70.8 33 4.8 40.6
15:25 1009 29.8 838 24.75 21.6 70.8 30 3.3 38
15:30 1009 29.8 838 24.75 22.1 71.8 33 5.4 41.8
15:35 1009 29.8 838 24.75 20.6 69 37 5.7 42.3
15:40 1009 29.8 838 24.75 19.7 67.4 40 6 42.8
15:45 1009 29.8 838 24.75 18.7 65.6 42 5.5 41.9
15:50 1009 29.8 838 24.75 18.4 65.2 41 5.1 41.1
15:55 1009 29.8 838 24.75 18.5 65.3 42 5.4 41.8
16:00 1009 29.8 838 24.75 18.4 65.2 43 5.7 42.3
16:05 1009 29.8 838 24.75 18.5 65.2 42 5.4 41.7
16:10 1009 29.8 838 24.75 18.3 65 42 5.3 41.6
16:15 1009 29.8 838 24.75 18.2 64.7 40 4.6 40.2
16:20 1009 29.8 838 24.75 18.3 65 39 4.3 39.7
16:25 1009 29.8 838 24.75 18.7 65.6 39 4.5 40
16:30 1009 29.8 838 24.75 18.7 65.6 40 5 41
16:35 1009 29.8 838 24.75 18.3 65 38 3.8 38.8
16:40 1009 29.8 838 24.75 18.2 64.7 38 3.7 38.7
16:45 1009 29.8 838 24.75 18.3 64.9 36 3.2 37.8
16:50 1009 29.8 839 24.78 18.5 65.2 35 3 37.4
16:55 1009 29.8 839 24.78 18.6 65.4 34 2.6 36.7
17:00 1009 29.8 839 24.78 18.5 65.3 37 3.7 38.7
17:05 1009 29.8 839 24.78 18.4 65 37 3.6 38.5
17:10 1009 29.8 839 24.78 18.2 64.7 37 3.5 38.3
17:15 1009 29.8 839 24.78 17.6 63.7 40 3.9 39.1
17:20 1010 29.83 839 24.78 17.5 63.5 40 3.9 39
17:25 1010 29.83 839 24.78 17.7 63.9 40 4.1 39.3
17:30 1010 29.83 839 24.78 17.8 64.1 41 4.6 40.3
17:35 1010 29.83 839 24.78 17.6 63.6 42 4.5 40.2
17:40 1010 29.83 839 24.78 17.5 63.4 41 4.1 39.4
17:45 1010 29.83 839 24.78 17.6 63.7 40 4.1 39.4
17:50 1010 29.83 839 24.78 17.5 63.5 41 4.2 39.5
17:55 1010 29.83 839 24.78 17.5 63.5 42 4.4 40
18:00 1010 29.83 839 24.78 17.4 63.4 41 4.3 39.8
18:05 1010 29.83 839 24.78 17.4 63.4 42 4.6 40.3
18:10 1010 29.83 839 24.78 17.5 63.5 45 5.4 41.8
18:15 1010 29.83 839 24.78 17.6 63.6 45 5.7 42.3
18:20 1010 29.83 839 24.78 17.2 63 49 6.5 43.8
18:25 1010 29.83 839 24.78 16.1 61 51 6.1 42.9
18:30 1010 29.83 840 24.81 15.7 60.2 54 6.4 43.5
18:35 1010 29.83 840 24.81 15.4 59.6 53 6 42.8
18:40 1011 29.85 840 24.81 15.2 59.3 52 5.5 41.9
18:45 1011 29.85 840 24.81 15.3 59.5 52 5.5 41.9
18:50 1011 29.85 840 24.81 15.4 59.8 51 5.4 41.7
18:55 1011 29.85 840 24.81 15.4 59.7 50 5.1 41.2
19:00 1011 29.85 840 24.81 15.5 59.9 50 5.1 41.3
19:05 1011 29.85 840 24.81 15.6 60.1 50 5.4 41.7
19:10 1011 29.85 840 24.81 15.6 60.1 51 5.6 42.1
19:15 1011 29.85 840 24.81 15.5 60 53 6 42.8
19:20 1011 29.85 840 24.81 15.4 59.7 52 5.8 42.4
19:25 1011 29.85 840 24.81 15.3 59.5 54 6.2 43.2
19:30 1011 29.85 840 24.81 15.2 59.4 53 5.7 42.3
19:35 1011 29.85 840 24.81 15.2 59.3 53 5.7 42.3
19:40 1011 29.85 840 24.81 15.1 59.2 55 6.2 43.2
19:45 1011 29.85 840 24.81 15.1 59.2 58 7 44.6
19:50 1011 29.85 840 24.81 15 59 58 7 44.6
19:55 1011 29.85 840 24.81 14.8 58.7 59 7 44.6
20:00 1011 29.85 840 24.81 14.6 58.3 58 6.6 43.9
20:05 1011 29.85 841 24.83 14.6 58.3 58 6.6 43.9
20:10 1011 29.85 841 24.83 14.6 58.3 58 6.5 43.7
20:15 1012 29.88 841 24.83 14.5 58.2 58 6.5 43.7
20:20 1012 29.88 841 24.83 14.5 58 60 6.8 44.3
20:25 1012 29.88 841 24.83 14.4 58 60 6.8 44.3
20:30 1012 29.88 841 24.83 14.2 57.6 61 7 44.5
20:35 1012 29.88 841 24.83 14.1 57.4 61 6.8 44.2
20:40 1012 29.88 841 24.83 14 57.2 62 7 44.6
20:45 1012 29.88 841 24.83 13.9 57 65 7.5 45.4
20:50 1012 29.88 841 24.83 13.6 56.5 66 7.4 45.3
20:55 1012 29.88 841 24.83 13.5 56.3 66 7.4 45.3
21:00 1012 29.88 841 24.83 13.5 56.3 66 7.4 45.3
21:05 1012 29.88 842 24.86 13.5 56.2 69 8 46.4
21:10 1012 29.88 842 24.86 13.2 55.8 73 8.5 47.3
21:15 1012 29.88 842 24.86 12.9 55.2 75 8.6 47.5
21:20 1012 29.88 842 24.86 12.7 54.8 75 8.3 47
21:25 1012 29.88 842 24.86 12.6 54.6 77 8.7 47.6
21:30 1013 29.91 842 24.86 12.5 54.4 78 8.7 47.7
21:35 1013 29.91 842 24.86 12.3 54.1 79 8.7 47.7
21:40 1013 29.91 842 24.86 12 53.6 78 8.3 47
21:45 1013 29.91 842 24.86 11.7 53 79 8.2 46.7
21:50 1013 29.91 842 24.86 11.7 53 78 7.9 46.2
21:55 1013 29.91 842 24.86 11.6 52.8 80 8.3 46.9
22:00 1013 29.91 842 24.86 11.8 53.3 79 8.4 47.1
22:05 1013 29.91 842 24.86 11.9 53.5 78 8.3 46.9
22:10 1013 29.91 842 24.86 11.9 53.4 79 8.4 47.1
22:15 1013 29.91 842 24.86 11.9 53.4 79 8.3 47
22:20 1013 29.91 842 24.86 11.8 53.3 78 8.2 46.7
22:25 1013 29.91 842 24.86 11.7 53.1 79 8.1 46.7
22:30 1013 29.91 843 24.89 11.6 52.9 80 8.3 47
22:35 1013 29.91 842 24.86 11.6 52.9 81 8.4 47.1
22:40 1013 29.91 842 24.86 11.5 52.7 82 8.5 47.2
22:45 1013 29.91 842 24.86 11.5 52.7 81 8.3 47
22:50 1013 29.91 842 24.86 11.5 52.7 80 8.3 46.9
22:55 1013 29.91 842 24.86 11.5 52.7 80 8.1 46.7
23:00 1013 29.91 842 24.86 11.6 52.8 80 8.2 46.7
23:05 1013 29.91 842 24.86 11.5 52.7 81 8.3 47
23:10 1013 29.91 843 24.89 11.1 51.9 81 7.9 46.1
23:15 1013 29.91 842 24.86 10.9 51.6 81 7.7 45.9
23:20 1013 29.91 842 24.86 11.1 52 80 7.9 46.2
23:25 1013 29.91 842 24.86 11.3 52.3 80 7.9 46.3
23:30 1013 29.91 842 24.86 11.4 52.4 79 7.8 46.1
23:35 1013 29.91 843 24.89 11.4 52.6 79 8 46.3
23:40 1013 29.91 843 24.89 11.4 52.4 80 8.1 46.6
23:45 1014 29.94 843 24.89 11.3 52.3 78 7.6 45.7
23:50 1014 29.94 843 24.89 11.2 52.1 78 7.5 45.5
23:55 1014 29.94 843 24.89 11.4 52.4 78 7.6 45.7
24:00 1014 29.94 843 24.89 11.5 52.6 77 7.7 45.8